Time;durP1;ratioP1;P1;durP2;ratioP2;P2;SDS_P1;SDS_P2;PMS_P1;PMS_P2;Temp;Humidity;BMP_temperature;BMP_pressure;BME280_temperature;BME280_humidity;BME280_pressure;Samples;Min_cycle;Max_cycle;Signal;HPM_P1;HPM_P2
2022/11/02 00:01:18;;;;;;;10.85;2.08;;;;;;;13.31;100.00;101228.53;5111381;28;20560;-51
2022/11/02 00:03:47;;;;;;;11.25;2.30;;;;;;;13.31;100.00;101222.44;5109672;28;20150;-50
2022/11/02 00:06:15;;;;;;;15.50;2.00;;;;;;;13.30;100.00;101221.56;5113409;28;20385;-52
2022/11/02 00:08:44;;;;;;;9.90;2.10;;;;;;;13.25;100.00;101222.84;5113284;28;20054;-52
2022/11/02 00:11:12;;;;;;;6.40;1.70;;;;;;;13.33;100.00;101224.00;5114499;28;20058;-53
2022/11/02 00:13:41;;;;;;;14.40;2.15;;;;;;;13.29;100.00;101230.47;5114613;28;20052;-53
2022/11/02 00:16:13;;;;;;;9.88;1.73;;;;;;;13.31;100.00;101233.84;5114273;28;20108;-52
2022/11/02 00:18:43;;;;;;;14.68;1.88;;;;;;;13.30;100.00;101224.22;5110810;28;20074;-52
2022/11/02 00:21:13;;;;;;;9.50;1.80;;;;;;;13.29;100.00;101225.19;5111068;28;20568;-53
2022/11/02 00:23:42;;;;;;;6.18;1.42;;;;;;;13.30;100.00;101231.31;5109774;28;20383;-52
2022/11/02 00:26:12;;;;;;;10.75;2.05;;;;;;;13.34;100.00;101233.59;5111224;28;20085;-53
2022/11/02 00:28:40;;;;;;;11.30;2.17;;;;;;;13.39;100.00;101245.69;5114133;28;20035;-52
2022/11/02 00:31:08;;;;;;;14.27;2.47;;;;;;;13.30;100.00;101236.59;5113841;28;20046;-51
2022/11/02 00:33:39;;;;;;;14.88;2.10;;;;;;;13.09;100.00;101229.22;5114063;28;20479;-50
2022/11/02 00:36:07;;;;;;;11.80;2.05;;;;;;;13.05;100.00;101232.16;5113705;28;20079;-52
2022/11/02 00:38:38;;;;;;;14.70;1.75;;;;;;;12.87;100.00;101221.09;5113970;28;20141;-50
2022/11/02 00:41:06;;;;;;;12.43;2.20;;;;;;;12.72;100.00;101223.84;5113148;28;20071;-54
2022/11/02 00:43:36;;;;;;;14.07;2.53;;;;;;;12.64;100.00;101220.88;5113729;28;20454;-54
2022/11/02 00:46:04;;;;;;;17.05;2.20;;;;;;;12.42;100.00;101224.97;5111440;28;20108;-54
2022/11/02 00:48:32;;;;;;;12.27;2.17;;;;;;;12.31;100.00;101230.94;5109068;28;20437;-54
2022/11/02 00:51:00;;;;;;;11.55;2.22;;;;;;;12.32;100.00;101230.00;5113380;28;20513;-54
2022/11/02 00:53:28;;;;;;;12.00;2.25;;;;;;;12.18;100.00;101222.16;5113512;28;20040;-54
2022/11/02 00:55:57;;;;;;;11.00;2.05;;;;;;;12.22;100.00;101218.38;5111634;28;20097;-55
2022/11/02 00:58:25;;;;;;;12.18;2.00;;;;;;;12.21;100.00;101219.31;5109726;28;20052;-54
2022/11/02 01:00:55;;;;;;;11.10;1.58;;;;;;;12.13;100.00;101211.06;5109993;28;20051;-53
2022/11/02 01:03:23;;;;;;;14.68;2.13;;;;;;;12.12;100.00;101202.31;5112229;28;20063;-53
2022/11/02 01:05:51;;;;;;;12.20;1.95;;;;;;;12.13;100.00;101211.06;5110697;28;20486;-55
2022/11/02 01:08:19;;;;;;;10.43;2.17;;;;;;;12.12;100.00;101212.00;5111312;28;20481;-53
2022/11/02 01:10:47;;;;;;;9.18;1.60;;;;;;;12.17;100.00;101209.91;5113546;28;20478;-54
2022/11/02 01:13:16;;;;;;;8.57;2.03;;;;;;;12.06;100.00;101215.06;5113429;28;20371;-55
2022/11/02 01:15:44;;;;;;;6.75;1.77;;;;;;;12.05;100.00;101216.00;5113040;28;20070;-55
2022/11/02 01:18:16;;;;;;;10.60;1.80;;;;;;;12.07;100.00;101224.66;5109202;27;20043;-56
2022/11/02 01:20:44;;;;;;;8.80;1.65;;;;;;;12.09;100.00;101220.13;5109432;28;20050;-54
2022/11/02 01:23:12;;;;;;;10.75;2.40;;;;;;;12.13;100.00;101224.25;5111764;28;20043;-54
2022/11/02 01:25:45;;;;;;;12.30;1.67;;;;;;;12.15;100.00;101223.19;5113079;28;20048;-53
2022/11/02 01:28:13;;;;;;;9.50;1.95;;;;;;;12.09;100.00;101218.34;5110128;28;20137;-51
2022/11/02 01:30:42;;;;;;;11.55;1.75;;;;;;;12.09;100.00;101215.72;5109460;28;20085;-55
2022/11/02 01:33:10;;;;;;;12.32;2.00;;;;;;;11.98;100.00;101215.53;5110291;28;20478;-53
2022/11/02 01:35:40;;;;;;;12.98;2.20;;;;;;;11.95;100.00;101227.13;5113227;28;20126;-54
2022/11/02 01:38:08;;;;;;;8.30;1.70;;;;;;;11.99;100.00;101230.41;5110870;28;20058;-54
2022/11/02 01:40:37;;;;;;;11.48;2.20;;;;;;;11.92;100.00;101222.03;5107894;28;20040;-54
2022/11/02 01:43:19;;;;;;;9.20;1.65;;;;;;;11.92;100.00;101221.19;5109609;28;20554;-51
2022/11/02 01:45:50;;;;;;;8.83;1.90;;;;;;;11.92;100.00;101229.09;5110172;28;20501;-54
2022/11/02 01:48:26;;;;;;;10.77;2.03;;;;;;;11.96;100.00;101233.25;5108597;28;20092;-54
2022/11/02 01:50:57;;;;;;;10.98;1.85;;;;;;;11.98;100.00;101231.34;5109364;28;20482;-54
2022/11/02 01:53:25;;;;;;;11.20;2.20;;;;;;;11.93;100.00;101231.63;5110013;28;20416;-55
2022/11/02 01:55:54;;;;;;;7.38;1.67;;;;;;;11.96;100.00;101257.81;5112802;28;20124;-55
2022/11/02 01:58:22;;;;;;;10.10;1.48;;;;;;;11.95;100.00;101287.75;5112923;28;20050;-55
2022/11/02 02:00:51;;;;;;;9.05;1.20;;;;;;;11.78;100.00;101274.75;5110187;28;20048;-53
2022/11/02 02:03:20;;;;;;;6.00;1.10;;;;;;;11.72;100.00;101298.88;5108059;28;20053;-53
2022/11/02 02:05:54;;;;;;;3.60;0.88;;;;;;;11.62;100.00;101288.06;5109270;28;20043;-53
2022/11/02 02:08:26;;;;;;;4.80;0.93;;;;;;;11.52;100.00;101279.03;5109757;28;20047;-54
2022/11/02 02:10:56;;;;;;;1.92;0.57;;;;;;;11.49;100.00;101287.97;5111172;28;20052;-55
2022/11/02 02:13:27;;;;;;;3.60;0.75;;;;;;;11.46;100.00;101290.81;5108722;28;20692;-54
2022/11/02 02:16:06;;;;;;;5.82;0.90;;;;;;;11.40;100.00;101296.44;5112301;28;20048;-54
2022/11/02 02:18:40;;;;;;;4.38;0.70;;;;;;;11.42;100.00;101295.41;5112516;28;20146;-55
2022/11/02 02:21:20;;;;;;;4.57;0.95;;;;;;;11.40;100.00;101292.03;5110388;28;20044;-54
2022/11/02 02:24:12;;;;;;;3.25;0.80;;;;;;;11.36;100.00;101287.91;5107866;28;20056;-55
2022/11/02 02:27:09;;;;;;;4.68;0.65;;;;;;;11.25;100.00;101270.13;5109579;28;20368;-48
2022/11/02 02:29:53;;;;;;;6.45;0.70;;;;;;;11.18;100.00;101271.44;5109751;28;20063;-52
2022/11/02 02:32:30;;;;;;;5.25;0.93;;;;;;;11.16;100.00;101268.06;5108368;28;20040;-51
2022/11/02 02:35:02;;;;;;;6.53;0.95;;;;;;;11.19;100.00;101270.47;5112421;28;20047;-50
2022/11/02 02:37:40;;;;;;;4.70;0.80;;;;;;;11.18;100.00;101262.69;5111172;28;20387;-51
2022/11/02 02:40:14;;;;;;;9.38;1.17;;;;;;;11.23;100.00;101271.16;5112282;28;20058;-51
2022/11/02 02:42:48;;;;;;;3.60;0.60;;;;;;;11.25;100.00;101264.84;5114756;28;20379;-49
2022/11/02 02:45:22;;;;;;;4.78;0.88;;;;;;;11.20;100.00;101266.91;5114230;28;20059;-49
2022/11/02 02:47:58;;;;;;;4.93;0.80;;;;;;;11.18;100.00;101265.31;5112864;28;20047;-50
2022/11/02 02:50:30;;;;;;;5.95;1.00;;;;;;;11.21;100.00;101260.72;5113613;28;20089;-49
2022/11/02 02:53:01;;;;;;;7.97;1.02;;;;;;;11.15;100.00;101258.44;5116088;28;20105;-52
2022/11/02 02:55:34;;;;;;;2.78;0.82;;;;;;;11.03;100.00;101262.69;5115753;28;20517;-52
2022/11/02 02:58:03;;;;;;;8.40;1.00;;;;;;;11.01;100.00;101263.72;5116081;28;20073;-51
2022/11/02 03:00:35;;;;;;;6.15;1.10;;;;;;;10.94;100.00;101266.72;5115298;28;20087;-52
2022/11/02 03:03:05;;;;;;;4.38;1.00;;;;;;;10.93;100.00;101269.44;5115180;28;20047;-49
2022/11/02 03:05:36;;;;;;;5.32;1.05;;;;;;;10.87;100.00;101269.81;5115770;28;20063;-52
2022/11/02 03:08:08;;;;;;;7.63;1.02;;;;;;;10.87;100.00;101273.28;5113051;28;20097;-51
2022/11/02 03:10:44;;;;;;;10.30;1.85;;;;;;;10.85;100.00;101275.16;5111394;28;20393;-51
2022/11/02 03:13:29;;;;;;;7.47;1.23;;;;;;;10.90;100.00;101274.88;5115568;27;20036;-52
2022/11/02 03:16:04;;;;;;;6.72;1.20;;;;;;;10.90;100.00;101262.56;5115168;28;20514;-51
2022/11/02 03:18:41;;;;;;;8.13;1.65;;;;;;;10.90;100.00;101259.09;5115109;28;20100;-50
2022/11/02 03:21:22;;;;;;;9.18;1.33;;;;;;;10.94;100.00;101257.97;5111410;28;20073;-52
2022/11/02 03:23:55;;;;;;;7.32;1.30;;;;;;;10.97;100.00;101263.06;5110740;28;20402;-51
2022/11/02 03:26:26;;;;;;;;;;;;;;;11.05;100.00;101262.59;5112444;28;20562;-51
2022/11/02 03:29:05;;;;;;;7.78;1.67;;;;;;;11.05;100.00;101268.69;5115218;28;19939;-51
2022/11/02 03:31:39;;;;;;;18.65;2.78;;;;;;;11.08;100.00;101270.31;5115370;28;20067;-49
2022/11/02 03:34:18;;;;;;;11.00;1.58;;;;;;;11.09;100.00;101270.19;5115079;28;20105;-51
2022/11/02 03:36:52;;;;;;;9.20;1.38;;;;;;;11.07;100.00;101265.97;5113877;28;20055;-50
2022/11/02 03:39:25;;;;;;;9.90;1.40;;;;;;;11.09;100.00;101264.09;5115074;28;20056;-50
2022/11/02 03:41:56;;;;;;;10.75;1.67;;;;;;;11.08;100.00;101270.31;5113718;28;20473;-53
2022/11/02 03:44:26;;;;;;;9.27;1.30;;;;;;;11.02;100.00;101274.16;5113747;28;20075;-49
2022/11/02 03:46:59;;;;;;;10.00;1.52;;;;;;;10.95;100.00;101276.31;5111668;28;20129;-48
2022/11/02 03:49:30;;;;;;;10.20;1.73;;;;;;;10.91;100.00;101271.34;5113636;28;20122;-51
2022/11/02 03:52:03;;;;;;;7.93;1.40;;;;;;;10.94;100.00;101274.59;5111201;28;20055;-52
2022/11/02 03:54:42;;;;;;;10.55;1.83;;;;;;;10.96;100.00;101274.50;5109532;28;20088;-50
2022/11/02 03:57:21;;;;;;;12.07;2.45;;;;;;;11.04;100.00;101284.59;5114653;28;20052;-50
2022/11/02 03:59:52;;;;;;;11.73;1.73;;;;;;;10.99;100.00;101274.34;5111857;28;20140;-48
2022/11/02 04:02:21;;;;;;;16.15;1.85;;;;;;;11.01;100.00;101287.41;5110503;27;20071;-50
2022/11/02 04:04:51;;;;;;;8.18;1.63;;;;;;;10.98;100.00;101283.16;5114634;28;20112;-50
2022/11/02 04:07:24;;;;;;;13.40;2.13;;;;;;;11.02;100.00;101291.75;5113536;28;20047;-48
2022/11/02 04:09:52;;;;;;;11.80;2.15;;;;;;;10.98;100.00;101280.53;5114349;28;20040;-50
2022/11/02 04:15:07;;;;;;;11.85;1.85;;;;;;;10.97;100.00;101297.25;5114420;28;20390;-52
2022/11/02 04:20:22;;;;;;;13.35;1.98;;;;;;;10.95;100.00;101299.16;5114209;28;20070;-51
2022/11/02 04:25:36;;;;;;;14.40;2.05;;;;;;;10.93;100.00;101303.66;5114353;28;20153;-50
2022/11/02 04:28:08;;;;;;;10.88;2.00;;;;;;;10.93;100.00;101304.47;5114408;27;20460;-52
2022/11/02 04:30:36;;;;;;;8.77;1.73;;;;;;;10.92;100.00;101302.81;5112938;28;20513;-53
2022/11/02 04:35:51;;;;;;;9.73;2.25;;;;;;;10.93;100.00;101309.75;5112992;28;20322;-50
2022/11/02 04:43:51;;;;;;;13.05;2.20;;;;;;;10.93;100.00;101328.16;5111188;28;20062;-49
2022/11/02 04:46:20;;;;;;;14.70;2.03;;;;;;;10.89;100.00;101336.34;5109053;28;20138;-48
2022/11/02 04:48:49;;;;;;;13.45;1.98;;;;;;;10.92;100.00;101346.69;5110342;28;20558;-51
2022/11/02 04:51:19;;;;;;;8.70;1.38;;;;;;;10.91;100.00;101340.59;5111722;28;20093;-51
2022/11/02 04:53:47;;;;;;;11.57;2.00;;;;;;;10.95;100.00;101352.63;5112511;28;20052;-52
2022/11/02 04:56:15;;;;;;;13.35;1.73;;;;;;;10.97;100.00;101361.25;5113540;28;20453;-52
2022/11/02 04:58:44;;;;;;;11.82;1.88;;;;;;;10.95;100.00;101367.56;5113595;28;20052;-50
2022/11/02 05:01:14;;;;;;;12.30;2.20;;;;;;;10.93;100.00;101372.91;5113451;28;20040;-48
2022/11/02 05:03:43;;;;;;;9.38;1.80;;;;;;;10.93;100.00;101374.69;5113592;28;20039;-50
2022/11/02 05:06:12;;;;;;;11.25;1.98;;;;;;;10.93;100.00;101375.53;5113114;28;20069;-50
2022/11/02 05:08:41;;;;;;;11.27;1.70;;;;;;;10.94;100.00;101384.28;5113347;28;20067;-50
2022/11/02 05:11:09;;;;;;;12.98;1.65;;;;;;;10.97;100.00;101387.56;5113120;28;20047;-51
2022/11/02 05:13:39;;;;;;;14.18;2.33;;;;;;;10.98;100.00;101394.53;5113370;27;20127;-50
2022/11/02 05:16:10;;;;;;;12.07;1.80;;;;;;;11.04;100.00;101385.44;5113043;28;20100;-50
2022/11/02 05:18:38;;;;;;;9.65;1.67;;;;;;;11.08;100.00;101386.13;5113354;28;20039;-48
2022/11/02 05:21:06;;;;;;;11.10;1.92;;;;;;;11.05;100.00;101381.88;5112952;28;20122;-51
2022/11/02 05:23:36;;;;;;;14.88;2.53;;;;;;;11.05;100.00;101389.78;5113254;28;20048;-52
2022/11/02 05:26:06;;;;;;;12.38;1.75;;;;;;;11.07;100.00;101397.56;5112993;28;20390;-51
2022/11/02 05:28:34;;;;;;;12.30;2.20;;;;;;;11.08;100.00;101402.75;5113030;28;20039;-48
2022/11/02 05:31:03;;;;;;;11.65;2.00;;;;;;;11.05;100.00;101395.03;5113023;28;20066;-49
2022/11/02 05:33:32;;;;;;;14.27;2.55;;;;;;;11.06;100.00;101396.75;5113178;27;20490;-49
2022/11/02 05:36:00;;;;;;;11.05;1.95;;;;;;;11.06;100.00;101403.81;5109993;28;20047;-47
2022/11/02 05:38:28;;;;;;;13.05;2.25;;;;;;;11.01;100.00;101409.31;5110368;28;20073;-53
2022/11/02 05:40:59;;;;;;;11.65;2.15;;;;;;;11.09;100.00;101422.03;5112635;28;20515;-50
2022/11/02 05:43:28;;;;;;;12.32;2.08;;;;;;;11.11;100.00;101417.53;5112412;28;20044;-53
2022/11/02 05:45:57;;;;;;;15.73;2.63;;;;;;;11.04;100.00;101413.56;5112710;28;20127;-54
2022/11/02 05:48:27;;;;;;;13.57;2.42;;;;;;;11.04;100.00;101416.19;5109290;28;20112;-55
2022/11/02 05:50:55;;;;;;;16.08;3.05;;;;;;;11.07;100.00;101426.53;5109364;28;20530;-54
2022/11/02 05:53:24;;;;;;;13.57;2.28;;;;;;;11.08;100.00;101422.97;5108476;28;20067;-54
2022/11/02 05:55:52;;;;;;;15.20;2.33;;;;;;;11.06;100.00;101433.59;5109096;28;20468;-54
2022/11/02 05:58:23;;;;;;;9.63;2.03;;;;;;;11.14;100.00;101436.63;5109078;28;20479;-53
2022/11/02 06:00:51;;;;;;;13.07;2.72;;;;;;;11.09;100.00;101446.56;5112176;28;20052;-54
2022/11/02 06:03:19;;;;;;;13.27;2.67;;;;;;;11.11;100.00;101446.47;5111469;28;20051;-55
2022/11/02 06:05:47;;;;;;;12.05;2.17;;;;;;;11.10;100.00;101452.69;5109313;28;20063;-55
2022/11/02 06:08:15;;;;;;;12.85;2.38;;;;;;;11.06;100.00;101446.75;5109113;28;20092;-55
2022/11/02 06:10:44;;;;;;;10.02;1.77;;;;;;;11.06;100.00;101462.53;5109090;28;20051;-55
2022/11/02 06:13:12;;;;;;;10.43;1.90;;;;;;;11.08;100.00;101462.44;5107578;28;20093;-55
2022/11/02 06:15:41;;;;;;;11.13;2.25;;;;;;;11.07;100.00;101471.28;5109481;28;20126;-56
2022/11/02 06:18:09;;;;;;;12.85;2.42;;;;;;;11.12;100.00;101469.25;5112372;28;20066;-56
2022/11/02 06:20:37;;;;;;;10.13;2.05;;;;;;;11.09;100.00;101470.25;5116516;28;20586;-55
2022/11/02 06:23:05;;;;;;;14.43;2.17;;;;;;;11.04;100.00;101482.00;5115035;28;20027;-56
2022/11/02 06:25:34;;;;;;;12.55;2.45;;;;;;;11.06;100.00;101495.94;5111758;28;20071;-54
2022/11/02 06:28:02;;;;;;;12.77;2.10;;;;;;;11.07;100.00;101494.97;5113176;28;20510;-55
2022/11/02 06:30:30;;;;;;;15.15;2.58;;;;;;;11.04;100.00;101490.72;5113127;28;20044;-55
2022/11/02 06:33:00;;;;;;;14.25;2.60;;;;;;;11.01;100.00;101484.81;5112895;28;20061;-49
2022/11/02 06:35:34;;;;;;;13.30;2.45;;;;;;;11.01;100.00;101506.69;5112344;28;20075;-52
2022/11/02 06:38:02;;;;;;;10.88;1.63;;;;;;;11.02;100.00;101511.03;5113731;27;20130;-55
2022/11/02 06:40:30;;;;;;;11.45;1.90;;;;;;;11.03;100.00;101512.75;5111663;28;20627;-54
2022/11/02 06:42:59;;;;;;;12.25;2.25;;;;;;;11.09;100.00;101529.97;5113011;28;20040;-52
2022/11/02 06:45:45;;;;;;;15.07;2.67;;;;;;;11.06;100.00;101540.69;5113418;28;20090;-49
2022/11/02 06:48:15;;;;;;;12.10;1.83;;;;;;;11.04;100.00;101540.72;5114132;28;20061;-49
2022/11/02 06:50:43;;;;;;;11.90;1.90;;;;;;;11.05;100.00;101552.13;5116102;28;20039;-55
2022/11/02 06:53:11;;;;;;;11.57;1.83;;;;;;;11.01;100.00;101563.75;5115780;28;20044;-56
2022/11/02 06:55:39;;;;;;;10.57;2.10;;;;;;;11.02;100.00;101562.84;5115926;28;20071;-55
2022/11/02 06:58:07;;;;;;;10.00;1.77;;;;;;;10.99;100.00;101575.22;5115948;28;20044;-55
2022/11/02 07:00:36;;;;;;;12.18;1.75;;;;;;;10.99;100.00;101580.47;5115874;28;20040;-56
2022/11/02 07:03:06;;;;;;;7.47;1.77;;;;;;;10.93;100.00;101588.69;5115605;28;20379;-54
2022/11/02 07:05:36;;;;;;;10.77;2.08;;;;;;;10.92;100.00;101589.66;5115593;27;20054;-55
2022/11/02 07:08:04;;;;;;;11.43;2.28;;;;;;;10.91;100.00;101603.75;5112954;28;20101;-54
2022/11/02 07:10:34;;;;;;;12.82;2.03;;;;;;;10.86;100.00;101605.75;5111071;27;20047;-56
2022/11/02 07:13:02;;;;;;;10.77;1.65;;;;;;;10.89;100.00;101615.28;5112252;28;20047;-55
2022/11/02 07:15:30;;;;;;;13.48;2.30;;;;;;;10.78;100.00;101626.38;5112239;28;20415;-55
2022/11/02 07:17:59;;;;;;;14.77;2.10;;;;;;;10.85;100.00;101632.16;5115184;28;20061;-55
2022/11/02 07:20:29;;;;;;;15.05;2.10;;;;;;;10.92;100.00;101636.16;5114206;28;20441;-56
2022/11/02 07:23:00;;;;;;;16.75;2.72;;;;;;;11.02;100.00;101640.00;5112345;28;20040;-55
2022/11/02 07:25:30;;;;;;;12.75;2.30;;;;;;;11.01;100.00;101645.34;5112339;28;20047;-53
2022/11/02 07:28:00;;;;;;;16.50;1.90;;;;;;;10.95;100.00;101652.66;5114598;28;20047;-55
2022/11/02 07:30:29;;;;;;;13.38;1.80;;;;;;;11.03;100.00;101656.63;5114583;28;20047;-55
2022/11/02 07:32:57;;;;;;;11.43;2.00;;;;;;;10.99;100.00;101661.25;5115073;28;20048;-55
2022/11/02 07:35:25;;;;;;;10.48;1.45;;;;;;;10.96;100.00;101664.00;5115217;28;20077;-55
2022/11/02 07:37:59;;;;;;;14.60;1.80;;;;;;;10.98;100.00;101668.25;5115227;28;20108;-55
2022/11/02 07:40:29;;;;;;;18.15;2.00;;;;;;;11.07;100.00;101671.34;5115358;28;20390;-55
2022/11/02 07:42:57;;;;;;;14.32;1.63;;;;;;;11.11;100.00;101678.13;5112155;28;20410;-53
2022/11/02 07:45:27;;;;;;;10.20;2.03;;;;;;;11.06;100.00;101690.72;5111485;28;20558;-52
2022/11/02 07:47:55;;;;;;;8.93;1.70;;;;;;;11.25;100.00;101701.94;5112223;28;20043;-52
2022/11/02 07:50:25;;;;;;;11.93;2.00;;;;;;;11.28;100.00;101691.22;5115275;28;20051;-50
2022/11/02 07:52:55;;;;;;;12.35;1.85;;;;;;;11.50;100.00;101683.00;5115179;28;20035;-52
2022/11/02 07:55:26;;;;;;;13.75;2.65;;;;;;;11.58;100.00;101690.47;5114955;28;20067;-51
2022/11/02 07:57:55;;;;;;;8.60;2.10;;;;;;;11.75;100.00;101693.94;5114929;28;20382;-53
2022/11/02 08:00:23;;;;;;;7.95;2.13;;;;;;;11.94;100.00;101702.56;5114745;28;20079;-53
2022/11/02 08:02:55;;;;;;;11.05;2.38;;;;;;;12.04;100.00;101709.91;5114493;28;20054;-51
2022/11/02 08:05:23;;;;;;;16.48;2.45;;;;;;;12.39;100.00;101714.91;5113325;28;20036;-50
2022/11/02 08:07:58;;;;;;;16.60;1.98;;;;;;;12.55;100.00;101714.88;5114472;28;20058;-52
2022/11/02 08:10:29;;;;;;;11.55;2.05;;;;;;;12.49;100.00;101722.19;5114961;27;20059;-52
2022/11/02 08:13:05;;;;;;;9.18;1.80;;;;;;;12.61;100.00;101725.91;5113429;28;20118;-52
2022/11/02 08:15:33;;;;;;;11.23;1.80;;;;;;;12.85;100.00;101720.09;5111351;28;20118;-53
2022/11/02 08:18:02;;;;;;;13.25;1.90;;;;;;;12.99;100.00;101722.75;5112936;28;20051;-52
2022/11/02 08:20:32;;;;;;;10.93;1.63;;;;;;;13.08;100.00;101734.50;5112817;28;20071;-53
2022/11/02 08:23:01;;;;;;;14.63;1.88;;;;;;;13.01;100.00;101736.69;5114291;28;20104;-52
2022/11/02 08:25:31;;;;;;;13.23;2.20;;;;;;;12.94;100.00;101732.72;5114124;28;20104;-53
2022/11/02 08:28:01;;;;;;;18.15;2.70;;;;;;;12.92;100.00;101739.03;5114160;28;20494;-53
2022/11/02 08:30:32;;;;;;;13.27;2.10;;;;;;;12.84;100.00;101743.00;5114075;28;20048;-52
2022/11/02 08:33:03;;;;;;;12.02;1.90;;;;;;;13.06;100.00;101748.75;5113708;27;20035;-51
2022/11/02 08:35:32;;;;;;;12.60;2.03;;;;;;;13.22;100.00;101751.31;5113768;28;20043;-53
2022/11/02 08:38:04;;;;;;;11.40;1.92;;;;;;;13.33;100.00;101749.72;5113950;28;20044;-53
2022/11/02 08:40:35;;;;;;;13.77;2.15;;;;;;;13.42;100.00;101747.47;5113384;28;20060;-52
2022/11/02 08:43:04;;;;;;;13.20;2.08;;;;;;;13.42;100.00;101750.09;5110850;28;20082;-57
2022/11/02 08:45:34;;;;;;;8.43;1.83;;;;;;;13.56;100.00;101749.22;5109099;28;20248;-58
2022/11/02 08:48:22;;;;;;;10.07;2.00;;;;;;;13.59;100.00;101756.94;5113893;28;20508;-57
2022/11/02 08:50:51;;;;;;;9.52;1.60;;;;;;;13.63;100.00;101763.75;5113753;28;20611;-57
2022/11/02 08:53:19;;;;;;;11.95;1.73;;;;;;;13.62;100.00;101762.91;5113838;28;20051;-57
2022/11/02 08:55:48;;;;;;;10.15;1.85;;;;;;;13.59;100.00;101778.94;5113943;28;20413;-57
2022/11/02 08:58:17;;;;;;;10.02;1.65;;;;;;;13.57;100.00;101782.66;5113386;28;20044;-57
2022/11/02 09:00:45;;;;;;;10.82;2.30;;;;;;;13.59;100.00;101771.00;5113395;28;20047;-57
2022/11/02 09:03:15;;;;;;;12.30;2.17;;;;;;;13.57;100.00;101772.06;5111220;28;20048;-57
2022/11/02 09:05:49;;;;;;;11.55;2.05;;;;;;;13.58;100.00;101777.25;5109642;28;20637;-56
2022/11/02 09:08:20;;;;;;;14.10;2.00;;;;;;;13.57;100.00;101775.56;5111635;28;20063;-57
2022/11/02 09:10:51;;;;;;;13.45;2.08;;;;;;;13.69;100.00;101774.78;5109210;28;20082;-57
2022/11/02 09:13:24;;;;;;;11.65;2.53;;;;;;;13.80;100.00;101775.91;5108655;28;20051;-57
2022/11/02 09:15:53;;;;;;;8.82;2.03;;;;;;;13.83;100.00;101779.16;5108296;28;20078;-57
2022/11/02 09:18:24;;;;;;;11.98;1.70;;;;;;;13.79;100.00;101771.53;5110937;28;20047;-57
2022/11/02 09:20:52;;;;;;;10.07;1.77;;;;;;;13.82;100.00;101782.75;5112934;28;20054;-57
2022/11/02 09:23:21;;;;;;;10.90;2.20;;;;;;;13.90;100.00;101789.38;5108279;28;20039;-57
2022/11/02 09:25:53;;;;;;;12.38;2.15;;;;;;;13.90;100.00;101778.78;5109516;28;20046;-57
2022/11/02 09:28:23;;;;;;;12.93;1.92;;;;;;;14.08;100.00;101787.31;5110879;28;20040;-57
2022/11/02 09:30:52;;;;;;;12.32;1.95;;;;;;;14.17;100.00;101790.22;5108873;28;20040;-57
2022/11/02 09:33:22;;;;;;;13.60;1.98;;;;;;;14.25;100.00;101795.00;5110904;28;20118;-57
2022/11/02 09:35:50;;;;;;;9.18;1.85;;;;;;;14.47;100.00;101804.19;5104298;28;20150;-57
2022/11/02 09:38:18;;;;;;;9.18;1.90;;;;;;;14.54;100.00;101797.53;5109952;28;20097;-57
2022/11/02 09:41:01;;;;;;;13.90;2.15;;;;;;;14.41;100.00;101799.28;5111114;28;20043;-57
2022/11/02 09:43:40;;;;;;;11.88;2.28;;;;;;;14.74;100.00;101816.53;5107500;28;20051;-57
2022/11/02 09:46:12;;;;;;;12.57;2.03;;;;;;;15.04;100.00;101819.75;5108567;28;20108;-58
2022/11/02 09:48:43;;;;;;;10.32;2.47;;;;;;;15.04;100.00;101822.41;5109308;28;20051;-57
2022/11/02 09:51:15;;;;;;;11.50;2.15;;;;;;;15.21;100.00;101818.59;5112441;28;20048;-58
2022/11/02 09:53:52;;;;;;;9.03;1.60;;;;;;;15.59;100.00;101830.09;5112598;28;20378;-58
2022/11/02 09:56:22;;;;;;;9.27;1.52;;;;;;;15.60;100.00;101831.81;5112610;28;20043;-58
2022/11/02 09:58:57;;;;;;;8.93;1.80;;;;;;;15.55;100.00;101831.28;5107310;28;20051;-57
2022/11/02 10:01:38;;;;;;;11.93;1.75;;;;;;;15.51;100.00;101838.59;5107651;28;20046;-58
2022/11/02 10:04:26;;;;;;;9.60;2.30;;;;;;;15.57;100.00;101847.06;5107308;28;20494;-58
2022/11/02 10:07:01;;;;;;;11.85;2.17;;;;;;;15.92;100.00;101847.25;5108151;28;20050;-58
2022/11/02 10:09:39;;;;;;;10.63;2.03;;;;;;;15.91;100.00;101852.66;5107015;28;20044;-58
2022/11/02 10:12:12;;;;;;;10.27;1.98;;;;;;;15.51;100.00;101858.97;5110541;28;20052;-58
2022/11/02 10:14:50;;;;;;;12.32;1.83;;;;;;;15.43;100.00;101859.47;5113058;28;20051;-58
2022/11/02 10:17:25;;;;;;;13.50;1.90;;;;;;;15.51;100.00;101866.91;5107754;28;20086;-58
2022/11/02 10:19:56;;;;;;;10.35;2.08;;;;;;;15.70;100.00;101867.31;5108188;28;20108;-58
2022/11/02 10:22:28;;;;;;;9.05;1.60;;;;;;;15.72;100.00;101852.16;5110580;28;20047;-58
2022/11/02 10:24:58;;;;;;;14.13;2.30;;;;;;;16.01;100.00;101866.97;5107555;28;20047;-58
2022/11/02 10:27:32;;;;;;;7.65;1.83;;;;;;;16.12;100.00;101866.19;5111365;28;20521;-58
2022/11/02 10:30:04;;;;;;;12.10;2.15;;;;;;;16.27;94.56;101870.38;5112387;28;20048;-58
2022/11/02 10:32:36;;;;;;;10.82;1.75;;;;;;;16.41;91.06;101863.22;5110293;28;20444;-58
2022/11/02 10:35:12;;;;;;;10.43;1.50;;;;;;;17.05;87.65;101874.31;5106615;28;20063;-58
2022/11/02 10:38:15;;;;;;;9.68;1.50;;;;;;;17.34;83.82;101879.22;5108243;28;20281;-58
2022/11/02 10:41:05;;;;;;;9.82;2.10;;;;;;;17.19;84.66;101877.72;5108459;28;20062;-58
2022/11/02 10:43:47;;;;;;;11.55;2.05;;;;;;;17.53;82.95;101873.31;5109611;28;20051;-58
2022/11/02 10:46:29;;;;;;;9.35;1.67;;;;;;;17.78;81.42;101875.81;5107504;28;20074;-58
2022/11/02 10:49:05;;;;;;;9.13;2.10;;;;;;;18.10;74.34;101880.44;5111004;28;20048;-58
2022/11/02 10:51:33;;;;;;;13.65;2.08;;;;;;;18.19;72.15;101879.69;5110623;28;20383;-59
2022/11/02 10:54:01;;;;;;;21.05;3.47;;;;;;;18.22;71.93;101890.06;5107663;28;20047;-58
2022/11/02 10:56:31;;;;;;;20.00;3.97;;;;;;;18.39;68.76;101875.38;5107612;28;20048;-58
2022/11/02 10:59:09;;;;;;;10.30;2.08;;;;;;;18.40;68.73;101879.72;5108135;28;20525;-58
2022/11/02 11:01:37;;;;;;;9.05;1.90;;;;;;;18.56;68.79;101877.50;5107872;28;20055;-59
2022/11/02 11:04:18;;;;;;;11.18;1.98;;;;;;;18.05;69.54;101884.31;5109762;28;20043;-58
2022/11/02 11:06:47;;;;;;;9.50;1.83;;;;;;;18.71;69.52;101882.53;5113992;28;20078;-58
2022/11/02 11:09:17;;;;;;;10.02;2.15;;;;;;;18.65;68.77;101886.56;5115631;28;20427;-58
2022/11/02 11:11:54;;;;;;;10.38;2.20;;;;;;;18.67;69.03;101886.41;5111592;28;20502;-57
2022/11/02 11:14:27;;;;;;;9.13;1.83;;;;;;;18.29;69.92;101887.75;5111149;28;20044;-57
2022/11/02 11:17:18;;;;;;;11.05;2.30;;;;;;;17.97;71.11;101891.19;5110964;28;20105;-57
2022/11/02 11:20:24;;;;;;;13.82;2.40;;;;;;;18.01;70.45;101898.84;5114496;28;20837;-55
2022/11/02 11:23:17;;;;;;;18.25;3.08;;;;;;;17.69;70.90;101902.19;5112011;28;20043;-54
2022/11/02 11:25:54;;;;;;;;;;;;;;;17.69;71.27;101904.00;5115159;28;20548;-55
2022/11/02 11:28:24;;;;;;;34.65;5.45;;;;;;;17.65;71.05;101903.41;5111315;28;19927;-55
2022/11/02 11:31:12;;;;;;;14.90;2.42;;;;;;;17.59;72.39;101898.56;5111858;28;20101;-55
2022/11/02 11:33:51;;;;;;;14.95;2.17;;;;;;;17.66;72.77;101901.59;5113085;28;20043;-55
2022/11/02 11:36:27;;;;;;;10.27;2.00;;;;;;;17.57;73.05;101909.34;5115265;28;20043;-54
2022/11/02 11:38:59;;;;;;;12.30;2.13;;;;;;;17.45;73.32;101906.78;5115277;28;20370;-54
2022/11/02 11:41:28;;;;;;;13.27;2.60;;;;;;;17.36;72.80;101906.53;5115588;28;20118;-54
2022/11/02 11:44:00;;;;;;;12.80;2.10;;;;;;;17.03;74.02;101896.69;5114922;28;20039;-54
2022/11/02 11:46:42;;;;;;;12.27;2.05;;;;;;;17.15;75.07;101906.38;5114998;28;20055;-55
2022/11/02 11:49:21;;;;;;;10.43;1.77;;;;;;;16.90;74.44;101894.94;5113489;28;20104;-55